createdAt,value
2023-03-27T00:02:12.465Z,7.60
2023-03-27T00:04:46.232Z,7.60
2023-03-27T00:07:20.324Z,7.61
2023-03-27T00:09:54.269Z,7.64
2023-03-27T00:12:28.428Z,7.66
2023-03-27T00:15:02.131Z,7.68
2023-03-27T00:17:35.867Z,7.71
2023-03-27T00:20:11.051Z,7.72
2023-03-27T00:22:44.623Z,7.72
2023-03-27T00:25:18.689Z,7.71
2023-03-27T00:27:52.359Z,7.68
2023-03-27T00:30:26.685Z,7.65
2023-03-27T00:33:01.182Z,7.62
2023-03-27T00:35:35.253Z,7.60
2023-03-27T00:38:10.299Z,7.58
2023-03-27T00:40:45.008Z,7.55
2023-03-27T00:43:27.946Z,7.49
2023-03-27T00:46:06.966Z,7.45
2023-03-27T00:48:41.616Z,7.42
2023-03-27T00:51:16.243Z,7.37
2023-03-27T00:53:51.132Z,7.32
2023-03-27T00:56:26.523Z,7.29
2023-03-27T00:59:04.286Z,7.27
2023-03-27T01:01:37.908Z,7.24
2023-03-27T01:04:12.361Z,7.20
2023-03-27T01:06:46.158Z,7.17
2023-03-27T01:09:21.406Z,7.14
2023-03-27T01:12:12.928Z,7.10
2023-03-27T01:14:58.555Z,7.06
2023-03-27T01:17:45.685Z,7.01
2023-03-27T01:21:04.204Z,6.96
2023-03-27T01:23:59.502Z,6.90
2023-03-27T01:27:10.975Z,6.86
2023-03-27T01:29:59.941Z,6.82
2023-03-27T01:33:16.650Z,6.80
2023-03-27T01:36:10.913Z,6.76
2023-03-27T01:39:06.924Z,6.70
2023-03-27T01:41:49.655Z,6.66
2023-03-27T01:44:36.404Z,6.60
2023-03-27T01:47:34.645Z,6.56
2023-03-27T01:50:16.651Z,6.53
2023-03-27T01:52:55.700Z,6.49
2023-03-27T01:55:35.087Z,6.47
2023-03-27T01:58:14.338Z,6.44
2023-03-27T02:00:56.171Z,6.42
2023-03-27T02:03:35.465Z,6.38
2023-03-27T02:06:16.373Z,6.36
2023-03-27T02:08:56.948Z,6.37
2023-03-27T02:11:36.213Z,6.37
2023-03-27T02:14:14.012Z,6.37
2023-03-27T02:16:50.762Z,6.33
2023-03-27T02:19:30.501Z,6.29
2023-03-27T02:22:04.295Z,6.28
2023-03-27T02:24:49.329Z,6.27
2023-03-27T02:27:33.185Z,6.26
2023-03-27T02:30:16.534Z,6.26
2023-03-27T02:32:58.992Z,6.26
2023-03-27T02:35:45.796Z,6.26
2023-03-27T02:38:23.988Z,6.25
2023-03-27T02:41:07.543Z,6.22
2023-03-27T02:44:18.167Z,6.17
2023-03-27T02:47:07.104Z,6.13
2023-03-27T02:49:44.313Z,6.10
2023-03-27T02:52:22.252Z,6.08
2023-03-27T02:55:06.585Z,6.06
2023-03-27T02:57:51.938Z,6.03
2023-03-27T03:00:41.613Z,5.99
2023-03-27T03:03:28.182Z,5.96
2023-03-27T03:06:11.505Z,5.94
2023-03-27T03:08:46.965Z,5.92
2023-03-27T03:11:20.846Z,5.91
2023-03-27T03:13:54.279Z,5.89
2023-03-27T03:16:28.610Z,5.88
2023-03-27T03:19:02.309Z,5.86
2023-03-27T03:21:36.609Z,5.83
2023-03-27T03:24:10.911Z,5.77
2023-03-27T03:26:45.370Z,5.70
2023-03-27T03:29:19.829Z,5.67
2023-03-27T03:32:10.752Z,5.67
2023-03-27T03:34:46.906Z,5.67
2023-03-27T03:37:21.765Z,5.65
2023-03-27T03:39:55.245Z,5.62
2023-03-27T03:42:28.944Z,5.59
2023-03-27T03:45:02.850Z,5.59
2023-03-27T03:47:36.830Z,5.63
2023-03-27T03:50:12.238Z,5.71
2023-03-27T03:52:47.511Z,5.81
2023-03-27T03:55:21.265Z,5.90
2023-03-27T03:57:54.842Z,5.98
2023-03-27T04:00:34.841Z,6.06
2023-03-27T04:03:10.162Z,6.12
2023-03-27T04:05:44.353Z,6.16
2023-03-27T04:08:17.925Z,6.20
2023-03-27T04:10:57.746Z,6.26
2023-03-27T04:13:50.911Z,6.33
2023-03-27T04:16:38.438Z,6.40
2023-03-27T04:19:25.015Z,6.45
2023-03-27T04:22:05.409Z,6.48
2023-03-27T04:24:45.307Z,6.50
2023-03-27T04:27:21.551Z,6.52
2023-03-27T04:30:10.508Z,6.53
2023-03-27T04:33:19.095Z,6.56
2023-03-27T04:36:15.085Z,6.59
2023-03-27T04:38:59.160Z,6.61
2023-03-27T04:41:33.155Z,6.62
2023-03-27T04:44:07.421Z,6.62
2023-03-27T04:46:42.313Z,6.62
2023-03-27T04:49:19.384Z,6.61
2023-03-27T04:52:03.719Z,6.59
2023-03-27T04:54:37.351Z,6.58
2023-03-27T04:57:11.563Z,6.59
2023-03-27T04:59:45.620Z,6.61
2023-03-27T05:02:38.302Z,6.62
2023-03-27T05:05:21.335Z,6.59
2023-03-27T05:07:55.385Z,6.59
2023-03-27T05:10:30.902Z,6.63
2023-03-27T05:13:06.034Z,6.70
2023-03-27T05:15:39.645Z,6.79
2023-03-27T05:18:14.259Z,6.88
2023-03-27T05:20:50.280Z,6.94
2023-03-27T05:23:24.092Z,6.99
2023-03-27T05:25:59.881Z,7.06
2023-03-27T05:28:45.000Z,7.16
2023-03-27T05:31:19.489Z,7.27
2023-03-27T05:34:03.049Z,7.39
2023-03-27T05:36:39.533Z,7.49
2023-03-27T05:39:13.482Z,7.57
2023-03-27T05:41:49.278Z,7.63
2023-03-27T05:44:29.091Z,7.71
2023-03-27T05:47:03.271Z,7.79
2023-03-27T05:49:38.005Z,7.86
2023-03-27T05:52:14.689Z,7.96
2023-03-27T05:54:48.531Z,8.01
2023-03-27T05:57:22.519Z,8.06
2023-03-27T05:59:57.347Z,8.13
2023-03-27T06:02:31.835Z,8.17
2023-03-27T06:05:13.697Z,8.24
2023-03-27T06:07:48.092Z,8.29
2023-03-27T06:10:22.626Z,8.24
2023-03-27T06:13:24.452Z,8.23
2023-03-27T06:16:02.689Z,8.26
2023-03-27T06:19:00.132Z,8.29
2023-03-27T06:21:34.075Z,8.35
2023-03-27T06:24:09.750Z,8.43
2023-03-27T06:26:43.256Z,8.53
2023-03-27T06:29:17.119Z,8.68
2023-03-27T06:31:54.013Z,8.79
2023-03-27T06:34:35.397Z,8.87
2023-03-27T06:37:29.001Z,8.93
2023-03-27T06:40:04.147Z,9.01
2023-03-27T06:42:40.000Z,9.04
2023-03-27T06:45:33.926Z,9.05
2023-03-27T06:48:31.338Z,9.10
2023-03-27T06:51:09.284Z,9.20
2023-03-27T06:53:43.401Z,9.28
2023-03-27T06:56:17.122Z,9.41
2023-03-27T06:59:17.036Z,9.52
2023-03-27T07:01:52.961Z,9.65
2023-03-27T07:04:39.827Z,9.89
2023-03-27T07:07:27.541Z,10.37
2023-03-27T07:10:01.063Z,10.72
2023-03-27T07:12:37.567Z,10.97
2023-03-27T07:15:12.990Z,11.65
2023-03-27T07:17:54.146Z,12.62
2023-03-27T07:20:29.579Z,13.70
2023-03-27T07:23:05.900Z,14.14
2023-03-27T07:26:03.297Z,14.97
2023-03-27T07:29:11.337Z,15.87
2023-03-27T07:31:57.035Z,16.30
2023-03-27T07:34:59.475Z,16.61
2023-03-27T07:38:03.641Z,16.53
2023-03-27T07:40:44.406Z,16.25
2023-03-27T07:43:53.469Z,16.33
2023-03-27T07:46:28.396Z,17.09
2023-03-27T07:49:05.535Z,17.54
2023-03-27T07:51:40.480Z,17.67
2023-03-27T07:54:15.832Z,17.63
2023-03-27T07:56:54.550Z,17.47
2023-03-27T07:59:41.676Z,17.15
2023-03-27T08:02:21.053Z,16.90
2023-03-27T08:04:55.554Z,16.73
2023-03-27T08:07:30.650Z,16.60
2023-03-27T08:10:08.985Z,16.59
2023-03-27T08:12:53.402Z,16.52
2023-03-27T08:15:27.018Z,16.49
2023-03-27T08:18:02.343Z,16.55
2023-03-27T08:20:37.887Z,16.60
2023-03-27T08:23:11.813Z,16.48
2023-03-27T08:26:06.446Z,16.18
2023-03-27T08:28:46.087Z,15.98
2023-03-27T08:31:19.996Z,15.85
2023-03-27T08:33:53.944Z,15.82
2023-03-27T08:36:32.257Z,15.65
2023-03-27T08:39:08.636Z,15.28
2023-03-27T08:41:55.379Z,14.91
2023-03-27T08:44:40.131Z,14.55
2023-03-27T08:47:28.666Z,14.23
2023-03-27T08:50:22.997Z,13.98
2023-03-27T08:53:00.014Z,13.79
2023-03-27T08:55:43.289Z,13.60
2023-03-27T08:58:33.356Z,13.57
2023-03-27T09:01:32.125Z,13.94
2023-03-27T09:04:19.499Z,14.11
2023-03-27T09:07:02.848Z,13.92
2023-03-27T09:09:53.425Z,13.67
2023-03-27T09:12:45.458Z,13.45
2023-03-27T09:15:26.436Z,13.22
2023-03-27T09:18:04.654Z,13.05
2023-03-27T09:20:45.235Z,13.04
2023-03-27T09:23:24.245Z,13.03
2023-03-27T09:26:20.465Z,13.08
2023-03-27T09:29:21.033Z,13.07
2023-03-27T09:32:00.651Z,13.02
2023-03-27T09:34:35.648Z,13.09
2023-03-27T09:37:15.051Z,13.28
2023-03-27T09:39:55.046Z,13.41
2023-03-27T09:42:39.045Z,13.41
2023-03-27T09:45:14.792Z,13.28
2023-03-27T09:48:04.657Z,13.13
2023-03-27T09:50:49.586Z,12.95
2023-03-27T09:53:33.622Z,12.83
2023-03-27T09:56:17.889Z,12.75
2023-03-27T09:58:56.389Z,12.71
2023-03-27T10:01:35.517Z,12.64
2023-03-27T10:04:19.926Z,12.51
2023-03-27T10:07:05.770Z,12.36
2023-03-27T10:10:14.418Z,12.14
2023-03-27T10:13:18.389Z,11.86
2023-03-27T10:16:02.701Z,11.60
2023-03-27T10:18:46.669Z,11.42
2023-03-27T10:21:33.628Z,11.23
2023-03-27T10:24:21.159Z,11.03
2023-03-27T10:27:25.234Z,10.91
2023-03-27T10:30:33.747Z,10.80
2023-03-27T10:33:38.100Z,10.69
2023-03-27T10:36:38.333Z,10.64
2023-03-27T10:39:17.804Z,10.68
2023-03-27T10:42:19.757Z,10.77
2023-03-27T10:44:57.916Z,10.83
2023-03-27T10:47:35.879Z,10.82
2023-03-27T10:50:20.374Z,10.85
2023-03-27T10:53:04.267Z,10.96
2023-03-27T10:55:56.477Z,11.05
2023-03-27T10:58:36.072Z,11.00
2023-03-27T11:01:18.798Z,10.94
2023-03-27T11:04:01.155Z,10.96
2023-03-27T11:06:42.259Z,10.96
2023-03-27T11:09:27.381Z,11.00
2023-03-27T11:12:14.859Z,11.14
2023-03-27T11:15:13.032Z,11.27
2023-03-27T11:17:51.691Z,11.49
2023-03-27T11:20:51.056Z,11.58
2023-03-27T11:23:54.801Z,11.52
2023-03-27T11:27:02.275Z,11.39
2023-03-27T11:29:42.096Z,11.27
2023-03-27T11:32:23.085Z,11.20
2023-03-27T11:35:08.610Z,11.16
2023-03-27T11:37:54.060Z,11.12
2023-03-27T11:40:32.395Z,11.08
2023-03-27T11:43:11.243Z,11.06
2023-03-27T11:45:54.628Z,11.14
2023-03-27T11:49:00.253Z,11.23
2023-03-27T11:51:46.313Z,11.34
2023-03-27T11:54:34.903Z,11.44
2023-03-27T11:57:23.479Z,11.98
2023-03-27T12:00:19.348Z,12.27
2023-03-27T12:03:22.557Z,12.26
2023-03-27T12:06:20.254Z,12.14
2023-03-27T12:09:19.207Z,11.91
2023-03-27T12:12:51.226Z,11.65
2023-03-27T12:16:04.674Z,11.59
2023-03-27T12:19:10.822Z,11.54
2023-03-27T12:22:07.212Z,11.42
2023-03-27T12:25:06.536Z,11.53
2023-03-27T12:28:23.146Z,12.00
2023-03-27T12:31:51.944Z,12.96
2023-03-27T12:34:50.653Z,13.84
2023-03-27T12:37:30.351Z,14.21
2023-03-27T12:40:15.156Z,14.09
2023-03-27T12:42:55.972Z,13.84
2023-03-27T12:45:30.024Z,13.48
2023-03-27T12:48:21.626Z,13.09
2023-03-27T12:51:01.071Z,12.79
2023-03-27T12:54:13.449Z,12.54
2023-03-27T12:56:53.726Z,12.33
2023-03-27T12:59:33.707Z,12.21
2023-03-27T13:02:39.902Z,12.04
2023-03-27T13:05:49.381Z,11.82
2023-03-27T13:09:02.719Z,11.66
2023-03-27T13:12:09.841Z,11.56
2023-03-27T13:15:12.634Z,11.46
2023-03-27T13:17:57.533Z,11.41
2023-03-27T13:20:41.290Z,11.45
2023-03-27T13:23:29.206Z,11.43
2023-03-27T13:26:22.029Z,11.26
2023-03-27T13:28:57.675Z,11.10
2023-03-27T13:32:28.788Z,10.94
2023-03-27T13:35:41.675Z,10.74
2023-03-27T13:38:15.684Z,10.62
2023-03-27T13:41:35.525Z,10.53
2023-03-27T13:44:12.761Z,10.41
2023-03-27T13:46:54.561Z,10.32
2023-03-27T13:49:47.391Z,10.25
2023-03-27T13:52:51.662Z,10.15
2023-03-27T13:55:52.400Z,10.05
2023-03-27T13:59:41.772Z,9.83
2023-03-27T14:02:46.049Z,9.60
2023-03-27T14:05:37.647Z,9.39
2023-03-27T14:08:31.756Z,9.23
2023-03-27T14:11:37.338Z,9.07
2023-03-27T14:14:37.440Z,8.99
2023-03-27T14:17:39.593Z,8.97
2023-03-27T14:20:23.524Z,8.91
2023-03-27T14:23:06.010Z,8.89
2023-03-27T14:26:02.241Z,8.86
2023-03-27T14:28:51.938Z,8.85
2023-03-27T14:31:36.108Z,8.84
2023-03-27T14:34:40.575Z,8.79
2023-03-27T14:38:00.506Z,8.74
2023-03-27T14:40:51.008Z,8.63
2023-03-27T14:43:31.016Z,8.54
2023-03-27T14:46:08.626Z,8.51
2023-03-27T14:48:45.493Z,8.52
2023-03-27T14:51:21.783Z,8.45
2023-03-27T14:54:04.667Z,8.40
2023-03-27T14:56:56.510Z,8.34
2023-03-27T14:59:43.233Z,8.23
2023-03-27T15:02:26.959Z,8.19
2023-03-27T15:05:09.951Z,8.14
2023-03-27T15:07:49.705Z,8.08
2023-03-27T15:10:56.364Z,8.00
2023-03-27T15:13:43.922Z,7.92
2023-03-27T15:16:26.443Z,7.86
2023-03-27T15:19:10.423Z,7.80
2023-03-27T15:21:57.820Z,7.74
2023-03-27T15:24:41.046Z,7.66
2023-03-27T15:27:23.847Z,7.56
2023-03-27T15:30:00.349Z,7.48
2023-03-27T15:32:42.739Z,7.42
2023-03-27T15:35:24.146Z,7.35
2023-03-27T15:37:58.498Z,7.26
2023-03-27T15:40:42.451Z,7.20
2023-03-27T15:43:32.795Z,7.15
2023-03-27T15:46:17.246Z,7.09
2023-03-27T15:48:58.026Z,7.03
2023-03-27T15:51:35.694Z,7.00
2023-03-27T15:54:32.226Z,6.99
2023-03-27T15:57:11.823Z,6.94
2023-03-27T15:59:52.211Z,6.88
2023-03-27T16:02:30.118Z,6.83
2023-03-27T16:05:08.246Z,6.77
2023-03-27T16:07:49.156Z,6.73
2023-03-27T16:10:34.933Z,6.70
2023-03-27T16:13:24.338Z,6.68
2023-03-27T16:16:04.212Z,6.66
2023-03-27T16:18:42.913Z,6.61
2023-03-27T16:21:15.252Z,6.58
2023-03-27T16:23:50.032Z,6.56
2023-03-27T16:26:27.227Z,6.55
2023-03-27T16:29:04.022Z,6.55
2023-03-27T16:31:39.005Z,6.55
2023-03-27T16:34:22.423Z,6.54
2023-03-27T16:36:58.827Z,6.54
2023-03-27T16:39:34.049Z,6.51
2023-03-27T16:42:07.994Z,6.46
2023-03-27T16:44:42.937Z,6.46
2023-03-27T16:47:18.782Z,6.46
2023-03-27T16:50:10.241Z,6.46
2023-03-27T16:52:47.322Z,6.39
2023-03-27T16:55:25.239Z,6.30
2023-03-27T16:58:02.242Z,6.26
2023-03-27T17:00:37.514Z,6.20
2023-03-27T17:03:12.601Z,6.13
2023-03-27T17:05:46.903Z,6.08
2023-03-27T17:08:22.593Z,6.01
2023-03-27T17:10:57.642Z,5.96
2023-03-27T17:13:32.825Z,5.92
2023-03-27T17:16:09.784Z,5.89
2023-03-27T17:18:44.026Z,5.86
2023-03-27T17:21:18.504Z,5.83
2023-03-27T17:23:54.132Z,5.78
2023-03-27T17:26:32.594Z,5.75
2023-03-27T17:29:12.215Z,5.72
2023-03-27T17:31:48.193Z,5.69
2023-03-27T17:34:22.611Z,5.68
2023-03-27T17:36:58.022Z,5.68
2023-03-27T17:39:32.944Z,5.69
2023-03-27T17:42:08.794Z,5.68
2023-03-27T17:44:47.210Z,5.69
2023-03-27T17:47:23.518Z,5.66
2023-03-27T17:50:00.990Z,5.62
2023-03-27T17:52:39.379Z,5.59
2023-03-27T17:55:15.841Z,5.55
2023-03-27T17:58:07.860Z,5.54
2023-03-27T18:00:44.610Z,5.53
2023-03-27T18:03:25.282Z,5.53
2023-03-27T18:06:08.068Z,5.49
2023-03-27T18:08:48.274Z,5.43
2023-03-27T18:11:24.776Z,5.39
2023-03-27T18:13:59.194Z,5.32
2023-03-27T18:16:36.049Z,5.28
2023-03-27T18:19:13.288Z,5.23
2023-03-27T18:21:49.187Z,5.19
2023-03-27T18:24:25.803Z,5.17
2023-03-27T18:27:02.686Z,5.17
2023-03-27T18:29:41.441Z,5.15
2023-03-27T18:32:17.257Z,5.07
2023-03-27T18:34:54.336Z,4.99
2023-03-27T18:37:30.417Z,4.92
2023-03-27T18:40:12.268Z,4.85
2023-03-27T18:42:47.985Z,4.79
2023-03-27T18:45:25.514Z,4.76
2023-03-27T18:48:02.779Z,4.68
2023-03-27T18:50:42.625Z,4.61
2023-03-27T18:53:24.148Z,4.56
2023-03-27T18:56:03.443Z,4.50
2023-03-27T18:58:43.469Z,4.46
2023-03-27T19:01:20.992Z,4.43
2023-03-27T19:03:57.060Z,4.37
2023-03-27T19:06:35.903Z,4.34
2023-03-27T19:09:14.327Z,4.34
2023-03-27T19:11:53.296Z,4.30
2023-03-27T19:14:49.430Z,4.23
2023-03-27T19:17:44.347Z,4.15
2023-03-27T19:20:35.138Z,4.05
2023-03-27T19:23:42.918Z,3.95
2023-03-27T19:26:23.376Z,3.89
2023-03-27T19:29:00.601Z,3.82
2023-03-27T19:31:44.982Z,3.74
2023-03-27T19:34:29.896Z,3.69
2023-03-27T19:37:18.419Z,3.62
2023-03-27T19:39:56.309Z,3.55
2023-03-27T19:42:33.902Z,3.51
2023-03-27T19:45:14.919Z,3.47
2023-03-27T19:47:54.218Z,3.41
2023-03-27T19:50:29.648Z,3.34
2023-03-27T19:53:26.591Z,3.28
2023-03-27T19:56:04.244Z,3.23
2023-03-27T19:58:42.753Z,3.18
2023-03-27T20:01:20.906Z,3.13
2023-03-27T20:03:59.609Z,3.09
2023-03-27T20:06:39.329Z,3.02
2023-03-27T20:09:16.304Z,2.97
2023-03-27T20:11:53.435Z,2.92
2023-03-27T20:14:31.501Z,2.87
2023-03-27T20:17:12.150Z,2.82
2023-03-27T20:19:56.155Z,2.78
2023-03-27T20:22:40.689Z,2.73
2023-03-27T20:25:18.762Z,2.69
2023-03-27T20:27:55.144Z,2.64
2023-03-27T20:30:37.071Z,2.58
2023-03-27T20:33:13.866Z,2.52
2023-03-27T20:35:52.183Z,2.49
2023-03-27T20:38:29.698Z,2.45
2023-03-27T20:41:07.116Z,2.42
2023-03-27T20:43:45.239Z,2.37
2023-03-27T20:46:21.861Z,2.32
2023-03-27T20:48:56.615Z,2.27
2023-03-27T20:51:30.561Z,2.24
2023-03-27T20:54:06.356Z,2.20
2023-03-27T20:56:39.886Z,2.16
2023-03-27T20:59:14.903Z,2.13
2023-03-27T21:01:48.778Z,2.11
2023-03-27T21:04:24.751Z,2.08
2023-03-27T21:06:59.159Z,2.05
2023-03-27T21:09:32.776Z,2.02
2023-03-27T21:12:07.163Z,1.98
2023-03-27T21:14:41.087Z,1.93
2023-03-27T21:17:17.562Z,1.88
2023-03-27T21:19:51.486Z,1.84
2023-03-27T21:22:25.028Z,1.80
2023-03-27T21:24:59.133Z,1.77
2023-03-27T21:27:33.475Z,1.75
2023-03-27T21:30:10.079Z,1.73
2023-03-27T21:32:43.715Z,1.70
2023-03-27T21:35:17.363Z,1.66
2023-03-27T21:37:50.905Z,1.64
2023-03-27T21:40:25.264Z,1.62
2023-03-27T21:43:00.062Z,1.60
2023-03-27T21:45:34.242Z,1.57
2023-03-27T21:48:11.107Z,1.53
2023-03-27T21:50:45.588Z,1.49
2023-03-27T21:53:19.755Z,1.43
2023-03-27T21:55:53.193Z,1.39
2023-03-27T21:58:27.072Z,1.38
2023-03-27T22:01:01.316Z,1.36
2023-03-27T22:03:35.280Z,1.34
2023-03-27T22:06:13.378Z,1.30
2023-03-27T22:08:45.724Z,1.25
2023-03-27T22:11:19.523Z,1.21
2023-03-27T22:13:53.511Z,1.17
2023-03-27T22:16:27.726Z,1.14
2023-03-27T22:19:01.768Z,1.10
2023-03-27T22:21:35.476Z,1.08
2023-03-27T22:24:09.939Z,1.07
2023-03-27T22:26:44.168Z,1.03
2023-03-27T22:29:18.036Z,0.99
2023-03-27T22:31:52.213Z,0.96
2023-03-27T22:34:27.006Z,0.95
2023-03-27T22:37:01.911Z,0.95
2023-03-27T22:39:35.958Z,0.93
2023-03-27T22:42:09.981Z,0.91
2023-03-27T22:44:43.968Z,0.88
2023-03-27T22:47:17.434Z,0.85
2023-03-27T22:49:50.918Z,0.82
2023-03-27T22:52:24.819Z,0.79
2023-03-27T22:54:58.400Z,0.76
2023-03-27T22:57:31.962Z,0.74
2023-03-27T23:00:07.191Z,0.72
2023-03-27T23:02:41.627Z,0.69
2023-03-27T23:05:15.944Z,0.67
2023-03-27T23:07:49.353Z,0.63
2023-03-27T23:10:23.224Z,0.60
2023-03-27T23:12:57.087Z,0.60
2023-03-27T23:15:30.650Z,0.60
2023-03-27T23:18:04.971Z,0.60
2023-03-27T23:20:40.974Z,0.61
2023-03-27T23:23:14.798Z,0.63
2023-03-27T23:25:48.264Z,0.66
2023-03-27T23:28:22.103Z,0.69
2023-03-27T23:31:00.516Z,0.70
2023-03-27T23:33:37.882Z,0.71
2023-03-27T23:36:14.462Z,0.73
2023-03-27T23:38:48.263Z,0.73
2023-03-27T23:41:22.687Z,0.72
2023-03-27T23:43:56.417Z,0.69
2023-03-27T23:46:30.056Z,0.66
2023-03-27T23:49:03.635Z,0.62
2023-03-27T23:51:37.134Z,0.58
2023-03-27T23:54:11.083Z,0.54
2023-03-27T23:56:45.321Z,0.51
2023-03-27T23:59:19.278Z,0.49
